Time;durP1;ratioP1;P1;durP2;ratioP2;P2;SDS_P1;SDS_P2;PMS_P1;PMS_P2;Temp;Humidity;BMP_temperature;BMP_pressure;BME280_temperature;BME280_humidity;BME280_pressure;Samples;Min_cycle;Max_cycle;Signal;HPM_P1;HPM_P2
2022/06/07 00:00:24;;;;;;;28.83;25.83;;;;;;;17.79;100.00;98989.97;2066202;28;20451;-69
2022/06/07 00:01:24;;;;;;;29.87;26.77;;;;;;;17.79;100.00;98986.50;2057827;28;20477;-69
2022/06/07 00:02:28;;;;;;;33.10;26.93;;;;;;;17.80;100.00;98988.06;2066278;28;20432;-69
2022/06/07 00:03:32;;;;;;;28.73;25.83;;;;;;;17.84;100.00;98988.94;2066892;28;20548;-69
2022/06/07 00:04:35;;;;;;;29.00;26.07;;;;;;;17.83;100.00;98990.09;2066880;28;20460;-69
2022/06/07 00:05:39;;;;;;;28.43;25.57;;;;;;;17.82;100.00;98987.72;2066984;28;20839;-69
2022/06/07 00:06:40;;;;;;;29.33;25.80;;;;;;;17.81;100.00;98989.66;2073923;28;20813;-69
2022/06/07 00:07:43;;;;;;;28.47;25.37;;;;;;;17.80;100.00;98990.75;2074214;28;20431;-69
2022/06/07 00:08:43;;;;;;;27.83;24.97;;;;;;;17.82;100.00;98988.50;2066818;28;20799;-69
2022/06/07 00:09:47;;;;;;;29.00;25.90;;;;;;;17.85;100.00;98989.72;2066961;28;20428;-69
2022/06/07 00:10:50;;;;;;;28.50;25.53;;;;;;;17.81;100.00;98989.66;2066850;28;20565;-69
2022/06/07 00:11:51;;;;;;;29.27;26.17;;;;;;;17.85;100.00;98992.44;2067014;28;20503;-70
2022/06/07 00:12:54;;;;;;;28.57;25.50;;;;;;;17.82;100.00;98990.44;2066715;28;20466;-69
2022/06/07 00:13:56;;;;;;;28.73;25.80;;;;;;;17.79;100.00;98987.28;2066823;28;20443;-69
2022/06/07 00:14:57;;;;;;;29.37;26.37;;;;;;;17.76;100.00;98985.28;2067030;28;20435;-69
2022/06/07 00:16:01;;;;;;;29.33;26.37;;;;;;;17.77;100.00;98989.53;2066786;28;20431;-69
2022/06/07 00:17:05;;;;;;;29.03;26.13;;;;;;;17.73;100.00;98985.97;2066778;28;20193;-69
2022/06/07 00:18:07;;;;;;;28.63;25.47;;;;;;;17.71;100.00;98984.72;2066795;28;21003;-69
2022/06/07 00:19:08;;;;;;;30.43;26.93;;;;;;;17.71;100.00;98984.72;2066761;28;20471;-69
2022/06/07 00:20:13;;;;;;;27.47;24.57;;;;;;;17.69;100.00;98989.66;2066809;28;20424;-70
2022/06/07 00:21:15;;;;;;;28.50;25.63;;;;;;;17.67;100.00;98981.91;2069560;28;20227;-69
2022/06/07 00:22:17;;;;;;;28.57;25.63;;;;;;;17.64;100.00;98984.53;2074830;28;20436;-69
2022/06/07 00:23:21;;;;;;;27.50;24.53;;;;;;;17.61;100.00;98988.69;2074830;28;20193;-69
2022/06/07 00:24:25;;;;;;;28.47;25.67;;;;;;;17.56;100.00;98982.75;2075111;28;20429;-69
2022/06/07 00:25:26;;;;;;;29.33;26.23;;;;;;;17.48;100.00;98977.16;2074840;28;20427;-69
2022/06/07 00:26:28;;;;;;;30.00;26.80;;;;;;;17.46;100.00;98982.13;2075005;28;20439;-69
2022/06/07 00:27:31;;;;;;;30.67;27.47;;;;;;;17.45;100.00;98988.63;2074376;28;20449;-70
2022/06/07 00:28:33;;;;;;;29.13;26.13;;;;;;;17.41;100.00;98987.75;2065970;28;20472;-69
2022/06/07 00:29:35;;;;;;;29.47;26.57;;;;;;;17.40;100.00;98994.28;2066002;28;20439;-69
2022/06/07 00:30:38;;;;;;;28.53;25.63;;;;;;;17.36;100.00;98990.69;2074241;28;20518;-69
2022/06/07 00:31:41;;;;;;;29.40;26.40;;;;;;;17.33;100.00;98987.91;2074774;28;20434;-69
2022/06/07 00:32:42;;;;;;;29.63;26.43;;;;;;;17.29;100.00;98982.41;2074885;28;20574;-69
2022/06/07 00:33:44;;;;;;;28.87;25.87;;;;;;;17.27;100.00;98984.66;2074764;28;20428;-69
2022/06/07 00:34:46;;;;;;;25.33;22.90;;;;;;;17.23;100.00;98989.16;2074748;28;20436;-69
2022/06/07 00:35:49;;;;;;;31.23;27.93;;;;;;;17.19;100.00;98978.25;2074743;28;20427;-69
2022/06/07 00:36:52;;;;;;;32.20;27.70;;;;;;;17.15;100.00;98980.09;2073780;28;20493;-70
2022/06/07 00:37:54;;;;;;;36.83;28.23;;;;;;;17.13;100.00;98976.16;2074172;28;20791;-69
2022/06/07 00:38:55;;;;;;;31.53;28.20;;;;;;;17.13;100.00;98987.75;2090312;28;20457;-69
2022/06/07 00:39:57;;;;;;;30.90;27.87;;;;;;;17.11;100.00;98983.78;2090603;28;20468;-69
2022/06/07 00:40:58;;;;;;;34.03;29.17;;;;;;;17.12;100.00;98982.69;2074710;28;20200;-69
2022/06/07 00:42:00;;;;;;;32.53;29.07;;;;;;;17.10;100.00;98983.00;2074623;28;20439;-69
2022/06/07 00:43:01;;;;;;;32.43;28.77;;;;;;;17.10;100.00;98987.63;2073982;28;20744;-69
2022/06/07 00:44:41;;;;;;;30.77;27.77;;;;;;;17.06;100.00;98982.13;2065866;28;20850;-69
2022/06/07 00:45:43;;;;;;;30.53;27.33;;;;;;;17.03;100.00;98979.31;2074426;28;20551;-70
2022/06/07 00:46:45;;;;;;;30.63;27.47;;;;;;;16.99;100.00;98973.81;2073988;28;20447;-70
2022/06/07 00:47:47;;;;;;;34.37;28.50;;;;;;;17.02;100.00;98977.75;2065998;28;20436;-69
2022/06/07 00:48:48;;;;;;;30.50;27.20;;;;;;;16.99;100.00;98973.03;2066041;28;20962;-68
2022/06/07 00:49:52;;;;;;;30.80;27.63;;;;;;;17.00;100.00;98980.78;2065788;28;20827;-69
2022/06/07 00:50:58;;;;;;;30.87;27.57;;;;;;;16.99;100.00;98981.13;2073327;28;20738;-69
2022/06/07 00:51:59;;;;;;;31.00;27.13;;;;;;;16.98;100.00;98974.97;2074043;28;20972;-68
2022/06/07 00:53:01;;;;;;;32.90;28.77;;;;;;;16.97;100.00;98973.38;2090271;28;20465;-70
2022/06/07 00:54:01;;;;;;;32.87;28.33;;;;;;;16.95;100.00;98981.81;2082030;28;21057;-69
2022/06/07 00:55:07;;;;;;;31.67;28.23;;;;;;;16.92;100.00;98973.63;2065988;28;20476;-69
2022/06/07 00:56:18;;;;;;;32.23;28.07;;;;;;;16.92;100.00;98976.31;2067507;28;20821;-69
2022/06/07 00:57:20;;;;;;;32.93;29.37;;;;;;;16.90;100.00;98973.97;2074019;28;20945;-69
2022/06/07 00:58:25;;;;;;;35.07;28.83;;;;;;;16.92;100.00;98971.69;2074675;28;20423;-69
2022/06/07 00:59:28;;;;;;;30.80;27.17;;;;;;;16.95;100.00;98981.03;2082060;28;20492;-69
2022/06/07 01:00:29;;;;;;;30.67;27.53;;;;;;;16.95;100.00;98976.44;2073859;28;20486;-70
2022/06/07 01:01:33;;;;;;;31.17;27.83;;;;;;;16.94;100.00;98974.88;2066268;28;20456;-69
2022/06/07 01:02:35;;;;;;;30.93;27.53;;;;;;;16.93;100.00;98973.28;2065792;28;20464;-69
2022/06/07 01:03:36;;;;;;;35.77;28.60;;;;;;;16.92;100.00;98977.09;2065860;28;20193;-69
2022/06/07 01:04:40;;;;;;;32.50;27.57;;;;;;;16.91;100.00;98978.22;2074147;28;20485;-68
2022/06/07 01:05:42;;;;;;;31.30;27.67;;;;;;;16.89;100.00;98972.38;2074161;28;20693;-70
2022/06/07 01:10:52;;;;;;;30.47;27.20;;;;;;;16.77;100.00;98975.13;2074070;28;20416;-69
2022/06/07 01:12:00;;;;;;;29.87;26.67;;;;;;;16.78;100.00;98975.91;2074682;28;20450;-69
2022/06/07 01:13:02;;;;;;;29.33;26.33;;;;;;;16.73;100.00;98981.50;2073391;28;20514;-69
2022/06/07 01:14:05;;;;;;;29.80;26.70;;;;;;;16.70;100.00;98974.88;2066093;28;20555;-69
2022/06/07 01:15:09;;;;;;;33.37;28.07;;;;;;;16.67;100.00;98970.13;2065813;28;20475;-69
2022/06/07 01:16:11;;;;;;;30.40;27.00;;;;;;;16.75;100.00;98973.88;2065827;28;20498;-69
2022/06/07 01:17:17;;;;;;;29.40;26.33;;;;;;;16.75;100.00;98979.25;2074287;28;20443;-70
2022/06/07 01:18:17;;;;;;;29.80;26.57;;;;;;;16.72;100.00;98977.25;2073740;28;20447;-69
2022/06/07 01:19:21;;;;;;;31.40;27.43;;;;;;;16.70;100.00;98977.59;2065720;28;20448;-69
2022/06/07 01:20:22;;;;;;;30.00;26.90;;;;;;;16.70;100.00;98974.88;2065711;28;20832;-69
2022/06/07 01:21:31;;;;;;;33.43;27.57;;;;;;;16.68;100.00;98971.72;2073406;28;20526;-69
2022/06/07 01:22:33;;;;;;;36.27;27.93;;;;;;;16.66;100.00;98976.66;2090118;28;20704;-69
2022/06/07 01:23:36;;;;;;;31.30;28.00;;;;;;;16.63;100.00;98970.03;2081813;28;20521;-69
2022/06/07 01:24:36;;;;;;;30.53;27.20;;;;;;;16.62;100.00;98971.16;2065597;28;20946;-69
2022/06/07 01:25:41;;;;;;;29.50;26.67;;;;;;;16.62;100.00;98965.00;2065872;28;20448;-69
2022/06/07 01:26:43;;;;;;;30.03;27.03;;;;;;;16.61;100.00;98980.38;2065684;28;20814;-70
2022/06/07 01:27:44;;;;;;;34.07;28.27;;;;;;;16.60;100.00;98978.81;2065576;28;20456;-69
2022/06/07 01:28:45;;;;;;;30.80;27.50;;;;;;;16.59;100.00;98973.72;2065472;28;20695;-69
2022/06/07 01:29:48;;;;;;;35.27;28.43;;;;;;;16.60;100.00;98969.94;2065702;28;20934;-69
2022/06/07 01:30:51;;;;;;;31.20;27.80;;;;;;;16.58;100.00;98975.63;2065895;28;20205;-69
2022/06/07 01:31:53;;;;;;;38.53;28.13;;;;;;;16.56;100.00;98971.72;2073720;28;20428;-69
2022/06/07 01:32:58;;;;;;;34.00;29.43;;;;;;;16.56;100.00;98969.03;2073611;28;20439;-69
2022/06/07 01:34:00;;;;;;;34.80;29.93;;;;;;;16.57;100.00;98967.91;2081772;28;20442;-69
2022/06/07 01:35:01;;;;;;;33.97;29.80;;;;;;;16.54;100.00;98965.88;2089927;28;20618;-69
2022/06/07 01:36:06;;;;;;;38.60;31.07;;;;;;;16.51;100.00;98967.34;2072830;28;20440;-69
2022/06/07 01:37:10;;;;;;;39.47;32.13;;;;;;;16.55;100.00;98967.47;2073782;28;20576;-70
2022/06/07 01:38:12;;;;;;;43.10;33.17;;;;;;;16.57;100.00;98966.00;2074245;28;20505;-69
2022/06/07 01:41:56;;;;;;;43.43;37.07;;;;;;;16.57;100.00;98955.22;2073983;28;20407;-69
2022/06/07 01:43:15;;;;;;;45.53;36.20;;;;;;;16.56;100.00;98958.25;2073580;28;20573;-69
2022/06/07 01:44:16;;;;;;;46.63;36.47;;;;;;;16.55;100.00;98962.84;2065469;28;20471;-69
2022/06/07 01:45:20;;;;;;;40.97;35.63;;;;;;;16.53;100.00;98958.94;2065434;28;20444;-69
2022/06/07 01:46:21;;;;;;;41.47;35.37;;;;;;;16.54;100.00;98960.50;2082019;28;20196;-69
2022/06/07 01:47:25;;;;;;;45.80;36.17;;;;;;;16.53;100.00;98964.31;2081459;28;20810;-69
2022/06/07 01:48:31;;;;;;;45.80;37.37;;;;;;;16.50;100.00;98964.97;2074330;28;20442;-69
2022/06/07 01:49:32;;;;;;;44.87;36.70;;;;;;;16.47;100.00;98960.28;2081880;28;20430;-69
2022/06/07 01:50:33;;;;;;;45.07;35.87;;;;;;;16.48;100.00;98965.31;2073528;28;20859;-69
2022/06/07 01:51:34;;;;;;;43.47;35.17;;;;;;;16.49;100.00;98958.03;2073229;28;20223;-69
2022/06/07 01:52:37;;;;;;;43.30;34.83;;;;;;;16.47;100.00;98961.06;2081666;28;20937;-69
2022/06/07 01:53:48;;;;;;;43.33;35.67;;;;;;;16.47;100.00;98954.88;2073472;28;20470;-69
2022/06/07 01:54:53;;;;;;;41.20;33.80;;;;;;;16.45;100.00;98959.84;2065547;28;20475;-69
2022/06/07 01:56:00;;;;;;;37.17;33.07;;;;;;;16.49;100.00;98953.41;2082312;28;20696;-69
2022/06/07 01:57:02;;;;;;;42.70;34.20;;;;;;;16.47;100.00;98957.59;2080915;28;21009;-69
2022/06/07 01:58:04;;;;;;;38.63;33.57;;;;;;;16.48;100.00;98959.16;2065446;28;20455;-69
2022/06/07 01:59:05;;;;;;;37.17;32.67;;;;;;;16.45;100.00;98959.84;2065436;28;20503;-69
2022/06/07 02:00:08;;;;;;;43.67;33.40;;;;;;;16.45;100.00;98949.84;2073828;28;20982;-69
2022/06/07 02:01:14;;;;;;;39.40;33.40;;;;;;;16.43;100.00;98954.78;2073664;28;20396;-69
2022/06/07 02:02:16;;;;;;;38.90;32.57;;;;;;;16.39;100.00;98951.97;2081208;28;20933;-70
2022/06/07 02:03:16;;;;;;;37.43;32.40;;;;;;;16.36;100.00;98954.56;2081663;28;20183;-70
2022/06/07 02:04:20;;;;;;;37.37;33.37;;;;;;;16.39;100.00;98956.56;2073417;28;20439;-69
2022/06/07 02:05:24;;;;;;;36.00;32.13;;;;;;;16.39;100.00;98945.81;2073576;28;20215;-69
2022/06/07 02:06:30;;;;;;;35.80;31.73;;;;;;;16.37;100.00;98945.34;2072888;28;20532;-69
2022/06/07 02:07:33;;;;;;;39.47;32.67;;;;;;;16.35;100.00;98948.41;2065548;28;20456;-69
2022/06/07 02:08:41;;;;;;;39.30;31.87;;;;;;;16.34;100.00;98943.34;2065939;28;20459;-69
2022/06/07 02:09:45;;;;;;;34.93;31.00;;;;;;;16.38;100.00;98960.38;2065909;28;20848;-69
2022/06/07 02:10:46;;;;;;;37.80;31.33;;;;;;;16.36;100.00;98955.34;2073438;28;20443;-69
2022/06/07 02:12:00;;;;;;;35.77;31.17;;;;;;;16.38;100.00;98960.38;2073505;28;20461;-68
2022/06/07 02:13:01;;;;;;;39.13;32.50;;;;;;;16.38;100.00;98955.00;2073594;28;20408;-69
2022/06/07 02:14:03;;;;;;;35.90;31.87;;;;;;;16.36;100.00;98947.28;2074023;28;20431;-69
2022/06/07 02:15:05;;;;;;;37.67;32.30;;;;;;;16.40;100.00;98955.44;2074127;28;20200;-69
2022/06/07 02:16:07;;;;;;;34.93;31.20;;;;;;;16.37;100.00;98950.75;2074038;28;20442;-70
2022/06/07 02:17:09;;;;;;;35.73;31.10;;;;;;;16.43;100.00;98951.31;2074026;28;20436;-69
2022/06/07 02:18:20;;;;;;;38.27;30.50;;;;;;;16.41;100.00;98948.94;2073393;28;20428;-69
2022/06/07 02:19:33;;;;;;;37.20;32.00;;;;;;;16.42;100.00;98947.03;2066446;28;20432;-69
2022/06/07 02:20:35;;;;;;;39.90;32.30;;;;;;;16.39;100.00;98946.59;2073683;28;20455;-69
2022/06/07 02:21:38;;;;;;;38.47;31.60;;;;;;;16.42;100.00;98947.03;2072934;28;20969;-69
2022/06/07 02:22:39;;;;;;;35.27;31.50;;;;;;;16.43;100.00;98943.22;2065739;28;20517;-69
2022/06/07 02:23:42;;;;;;;36.27;32.33;;;;;;;16.39;100.00;98945.81;2065130;28;20950;-69
2022/06/07 02:24:44;;;;;;;41.70;30.83;;;;;;;16.36;100.00;98947.28;2073139;28;20199;-69
2022/06/07 02:25:49;;;;;;;35.47;31.37;;;;;;;16.34;100.00;98941.44;2073230;28;20450;-70
2022/06/07 02:27:05;;;;;;;44.10;32.17;;;;;;;16.30;100.00;98945.13;2081076;28;20426;-68
2022/06/07 02:28:07;;;;;;;36.23;32.33;;;;;;;16.32;100.00;98940.19;2074230;28;20456;-68
2022/06/07 02:29:10;;;;;;;38.87;31.77;;;;;;;16.28;100.00;98942.78;2073144;28;20533;-69
2022/06/07 02:30:11;;;;;;;36.27;31.83;;;;;;;16.30;100.00;98942.44;2073260;28;20228;-69
2022/06/07 02:31:13;;;;;;;36.63;32.73;;;;;;;16.28;100.00;98942.00;2073542;28;20443;-69
2022/06/07 02:32:17;;;;;;;38.53;32.70;;;;;;;16.33;100.00;98941.75;2081447;28;20203;-69
2022/06/07 02:33:19;;;;;;;35.20;31.47;;;;;;;16.39;100.00;98932.34;2081142;28;20442;-69
2022/06/07 02:34:21;;;;;;;36.83;31.80;;;;;;;16.36;100.00;98941.88;2073399;28;20434;-69
2022/06/07 02:35:24;;;;;;;38.53;32.40;;;;;;;16.35;100.00;98942.22;2074060;28;20434;-69
2022/06/07 02:36:25;;;;;;;34.73;30.90;;;;;;;16.34;100.00;98941.44;2072700;28;20542;-71
2022/06/07 02:37:28;;;;;;;36.07;32.17;;;;;;;16.28;100.00;98940.09;2065309;28;20436;-69
2022/06/07 02:38:28;;;;;;;36.97;32.93;;;;;;;16.32;100.00;98943.66;2073338;28;20486;-69
2022/06/07 02:39:33;;;;;;;38.53;31.10;;;;;;;16.24;100.00;98941.88;2073241;28;20450;-68
2022/06/07 02:40:35;;;;;;;35.87;31.33;;;;;;;16.29;100.00;98952.41;2073346;28;20203;-69
2022/06/07 02:41:41;;;;;;;35.00;30.30;;;;;;;16.27;100.00;98945.81;2073246;28;20480;-69
2022/06/07 02:42:42;;;;;;;38.97;31.40;;;;;;;16.24;100.00;98941.88;2066016;28;20452;-69
2022/06/07 02:43:45;;;;;;;41.83;32.17;;;;;;;16.29;100.00;98947.03;2073268;28;20471;-68
2022/06/07 02:44:46;;;;;;;40.00;32.70;;;;;;;16.29;100.00;98941.66;2081582;28;20206;-69
2022/06/07 02:45:48;;;;;;;35.23;31.20;;;;;;;16.32;100.00;98948.25;2073907;28;20438;-69
2022/06/07 02:46:50;;;;;;;35.33;31.57;;;;;;;16.30;100.00;98950.50;2073222;28;20458;-69
2022/06/07 02:47:52;;;;;;;37.17;31.67;;;;;;;16.27;100.00;98954.66;2065179;28;20539;-69
2022/06/07 02:48:55;;;;;;;37.50;32.13;;;;;;;16.28;100.00;98952.75;2065413;28;20529;-69
2022/06/07 02:49:57;;;;;;;37.33;31.73;;;;;;;16.28;100.00;98953.53;2065136;28;20455;-69
2022/06/07 02:50:58;;;;;;;41.37;32.80;;;;;;;16.28;100.00;98953.53;2080819;28;20286;-69
2022/06/07 02:51:59;;;;;;;39.80;33.27;;;;;;;16.30;100.00;98956.69;2081390;28;20438;-69
2022/06/07 02:53:01;;;;;;;40.43;33.07;;;;;;;16.34;100.00;98952.22;2073447;28;20200;-69
2022/06/07 02:54:08;;;;;;;36.90;32.37;;;;;;;16.34;100.00;98951.44;2073079;28;20833;-69
2022/06/07 02:55:12;;;;;;;34.60;30.93;;;;;;;16.36;100.00;98958.03;2073306;28;20431;-69
2022/06/07 02:56:15;;;;;;;35.33;31.33;;;;;;;16.38;100.00;98947.72;2073323;28;20471;-69
2022/06/07 02:57:17;;;;;;;37.90;31.43;;;;;;;16.40;100.00;98953.53;2065135;28;20463;-69
2022/06/07 02:58:20;;;;;;;37.07;31.33;;;;;;;16.47;100.00;98949.50;2073782;28;20447;-69
2022/06/07 02:59:21;;;;;;;34.17;30.53;;;;;;;16.47;100.00;98954.88;2073185;28;20467;-69
2022/06/07 03:00:23;;;;;;;36.30;30.70;;;;;;;16.46;100.00;98953.31;2081427;28;20670;-69
2022/06/07 03:01:26;;;;;;;35.00;31.23;;;;;;;16.47;100.00;98952.19;2089444;28;20417;-69
2022/06/07 03:02:27;;;;;;;40.83;32.70;;;;;;;16.49;100.00;98956.13;2081321;28;20525;-69
2022/06/07 03:03:30;;;;;;;37.27;31.77;;;;;;;16.52;100.00;98951.97;2073152;28;20466;-69
2022/06/07 03:04:30;;;;;;;36.33;31.40;;;;;;;16.52;100.00;98950.06;2081336;28;20996;-69
2022/06/07 03:05:32;;;;;;;35.17;31.17;;;;;;;16.50;100.00;98949.59;2089748;28;20866;-69
2022/06/07 03:06:37;;;;;;;35.70;31.80;;;;;;;16.51;100.00;98945.81;2073660;28;20580;-69
2022/06/07 03:07:38;;;;;;;37.10;32.57;;;;;;;16.55;100.00;98945.91;2073160;28;20447;-68
2022/06/07 03:08:39;;;;;;;36.57;31.60;;;;;;;16.55;100.00;98945.91;2064992;28;20205;-69
2022/06/07 03:09:42;;;;;;;39.03;32.50;;;;;;;16.53;100.00;98942.78;2073229;28;20428;-69
2022/06/07 03:10:44;;;;;;;34.50;30.90;;;;;;;16.56;100.00;98948.25;2073905;28;20193;-69
2022/06/07 03:11:46;;;;;;;34.67;30.97;;;;;;;16.50;100.00;98943.44;2073097;28;20443;-69
2022/06/07 03:12:47;;;;;;;37.83;32.20;;;;;;;16.50;100.00;98948.81;2065304;28;20881;-69
2022/06/07 03:13:52;;;;;;;35.97;32.07;;;;;;;16.49;100.00;98944.56;2065358;28;20522;-69
2022/06/07 03:14:59;;;;;;;39.03;31.10;;;;;;;16.57;100.00;98944.44;2066029;28;20484;-70
2022/06/07 03:16:01;;;;;;;34.60;30.77;;;;;;;16.56;100.00;98944.78;2073313;28;20510;-70
2022/06/07 03:17:04;;;;;;;36.30;30.87;;;;;;;16.62;100.00;98948.81;2073097;28;20455;-69
2022/06/07 03:18:10;;;;;;;37.53;30.13;;;;;;;16.58;100.00;98947.91;2065706;28;20449;-69
2022/06/07 03:19:17;;;;;;;34.03;30.33;;;;;;;16.52;100.00;98952.75;2082285;28;20458;-69
2022/06/07 03:20:19;;;;;;;32.30;28.87;;;;;;;16.51;100.00;98945.81;2089820;28;20421;-69
2022/06/07 03:21:20;;;;;;;33.00;29.50;;;;;;;16.54;100.00;98952.44;2080740;28;20231;-69
2022/06/07 03:22:24;;;;;;;34.37;30.40;;;;;;;16.56;100.00;98955.56;2073150;28;20969;-69
2022/06/07 03:23:26;;;;;;;34.50;30.67;;;;;;;16.55;100.00;98951.28;2065211;28;20480;-69
2022/06/07 03:24:32;;;;;;;33.57;29.57;;;;;;;16.56;100.00;98958.25;2081881;28;20945;-69
2022/06/07 03:25:33;;;;;;;41.43;30.80;;;;;;;16.53;100.00;98948.94;2081245;28;20457;-69
2022/06/07 03:26:40;;;;;;;37.83;31.07;;;;;;;16.46;100.00;98956.00;2073648;28;21021;-69
2022/06/07 03:27:47;;;;;;;38.03;31.87;;;;;;;16.49;100.00;98955.34;2073034;28;20953;-69
2022/06/07 03:28:53;;;;;;;43.07;31.87;;;;;;;16.53;100.00;98951.63;2065192;28;20578;-70
2022/06/07 03:29:57;;;;;;;34.17;30.13;;;;;;;16.56;100.00;98959.03;2073698;28;20538;-69
2022/06/07 03:31:07;;;;;;;34.53;30.93;;;;;;;16.59;100.00;98954.88;2073037;28;20469;-69
2022/06/07 03:32:12;;;;;;;36.93;31.00;;;;;;;16.56;100.00;98947.47;2074846;28;20447;-69
2022/06/07 03:33:13;;;;;;;35.17;30.07;;;;;;;16.61;100.00;98948.03;2089409;28;20979;-69
2022/06/07 03:34:15;;;;;;;37.80;31.57;;;;;;;16.61;100.00;98947.25;2089346;28;20492;-69
2022/06/07 03:35:16;;;;;;;37.60;31.87;;;;;;;16.55;100.00;98945.91;2072937;28;20452;-69
2022/06/07 03:36:21;;;;;;;34.83;30.20;;;;;;;16.60;100.00;98951.09;2064783;28;20539;-69
2022/06/07 03:37:22;;;;;;;36.60;30.00;;;;;;;16.65;100.00;98945.44;2066712;28;20455;-70
2022/06/07 03:38:24;;;;;;;34.67;30.83;;;;;;;16.64;100.00;98951.97;2074593;28;20430;-69
2022/06/07 03:39:25;;;;;;;32.40;28.97;;;;;;;16.64;100.00;98949.25;2075366;28;20477;-69
2022/06/07 03:40:46;;;;;;;33.57;29.90;;;;;;;16.66;100.00;98947.00;2082697;28;20434;-69
2022/06/07 03:41:53;;;;;;;34.20;29.27;;;;;;;16.67;100.00;98951.28;2074516;28;20533;-70
2022/06/07 03:42:59;;;;;;;32.60;29.17;;;;;;;16.65;100.00;98940.84;2083429;28;20470;-69
2022/06/07 03:44:01;;;;;;;32.50;29.03;;;;;;;16.66;100.00;98944.31;2082660;28;20442;-70
2022/06/07 03:45:05;;;;;;;31.90;28.40;;;;;;;16.66;100.00;98936.25;2074777;28;20987;-69
2022/06/07 03:46:08;;;;;;;39.00;30.00;;;;;;;16.69;100.00;98938.31;2074461;28;20490;-69
2022/06/07 03:47:09;;;;;;;32.80;29.50;;;;;;;16.68;100.00;98936.72;2074459;28;20449;-70
2022/06/07 03:48:10;;;;;;;33.97;30.27;;;;;;;16.74;100.00;98939.97;2066630;28;20897;-69
2022/06/07 03:49:12;;;;;;;32.53;29.03;;;;;;;16.76;100.00;98943.88;2066320;28;20454;-69
2022/06/07 03:50:13;;;;;;;35.07;31.33;;;;;;;16.78;100.00;98938.97;2066561;28;20205;-70
2022/06/07 03:51:19;;;;;;;33.97;30.33;;;;;;;16.74;100.00;98943.44;2065918;28;20451;-69
2022/06/07 03:52:20;;;;;;;33.23;29.63;;;;;;;16.81;100.00;98940.97;2066991;28;20432;-69
2022/06/07 03:53:21;;;;;;;39.43;31.57;;;;;;;16.79;100.00;98940.53;2066274;28;20490;-70
2022/06/07 03:54:22;;;;;;;34.67;30.80;;;;;;;16.84;100.00;98936.78;2074260;28;20227;-69
2022/06/07 03:55:26;;;;;;;34.40;30.83;;;;;;;16.90;100.00;98951.63;2082742;28;20949;-69
2022/06/07 03:56:41;;;;;;;34.73;30.30;;;;;;;16.94;100.00;98939.03;2080928;28;20478;-69
2022/06/07 03:57:45;;;;;;;33.90;30.47;;;;;;;16.90;100.00;98941.63;2066577;28;20459;-69
2022/06/07 03:58:47;;;;;;;36.93;31.30;;;;;;;16.98;100.00;98939.13;2074706;28;20554;-70
2022/06/07 03:59:48;;;;;;;36.93;30.93;;;;;;;17.00;100.00;98937.66;2074575;28;20485;-69
2022/06/07 04:00:49;;;;;;;37.73;31.90;;;;;;;17.07;100.00;98932.47;2066243;28;20440;-69
2022/06/07 04:01:50;;;;;;;33.53;30.13;;;;;;;17.08;100.00;98941.34;2066283;28;20212;-69
2022/06/07 04:02:53;;;;;;;33.50;30.00;;;;;;;17.09;100.00;98932.91;2066338;28;20439;-69
2022/06/07 04:03:56;;;;;;;34.10;30.50;;;;;;;17.10;100.00;98934.47;2074395;28;20566;-70
2022/06/07 04:04:58;;;;;;;35.10;31.03;;;;;;;17.16;100.00;98933.13;2082470;28;20450;-69
2022/06/07 04:06:00;;;;;;;34.70;30.23;;;;;;;17.15;100.00;98933.47;2073770;28;20497;-69
2022/06/07 04:08:31;;;;;;;36.67;30.20;;;;;;;17.28;100.00;98934.19;2085731;28;20446;-69
2022/06/07 04:09:38;;;;;;;34.77;29.60;;;;;;;17.31;100.00;98939.69;2082416;28;20485;-69
2022/06/07 04:10:48;;;;;;;32.50;28.83;;;;;;;17.26;100.00;98937.25;2067149;28;20436;-69
2022/06/07 04:11:54;;;;;;;35.00;28.87;;;;;;;17.27;100.00;98928.03;2067396;28;20472;-69
2022/06/07 04:12:57;;;;;;;31.70;28.60;;;;;;;17.27;100.00;98932.63;2066723;28;20444;-70
2022/06/07 04:14:00;;;;;;;30.67;27.67;;;;;;;17.26;100.00;98931.84;2074357;28;20427;-69
2022/06/07 04:15:01;;;;;;;32.27;28.53;;;;;;;17.24;100.00;98934.88;2082468;28;20493;-69
2022/06/07 04:16:05;;;;;;;31.53;28.30;;;;;;;17.28;100.00;98932.28;2082495;28;20437;-70
2022/06/07 04:17:09;;;;;;;30.33;27.43;;;;;;;17.33;100.00;98925.88;2074312;28;20192;-69
2022/06/07 04:18:13;;;;;;;30.23;27.33;;;;;;;17.35;100.00;98932.47;2066476;28;20451;-69
2022/06/07 04:19:15;;;;;;;31.60;28.43;;;;;;;17.38;100.00;98929.13;2066447;28;20926;-70
2022/06/07 04:20:17;;;;;;;30.60;27.50;;;;;;;17.40;100.00;98928.75;2066139;28;20527;-69
2022/06/07 04:21:19;;;;;;;31.23;28.03;;;;;;;17.55;100.00;98927.22;2065723;28;20487;-69
2022/06/07 04:22:20;;;;;;;30.33;27.30;;;;;;;17.53;100.00;98922.94;2074296;28;21003;-69
2022/06/07 04:23:29;;;;;;;30.40;27.40;;;;;;;17.56;100.00;98921.50;2074217;28;20435;-69
2022/06/07 04:24:30;;;;;;;29.90;26.97;;;;;;;17.62;100.00;98924.72;2066325;28;20598;-69
2022/06/07 04:25:36;;;;;;;32.07;28.10;;;;;;;17.60;100.00;98924.28;2074360;28;20526;-69
2022/06/07 04:26:40;;;;;;;28.53;25.83;;;;;;;17.60;100.00;98918.88;2074170;28;20523;-69
2022/06/07 04:27:42;;;;;;;29.33;26.30;;;;;;;17.63;100.00;98926.28;2074357;28;20490;-69
2022/06/07 04:28:46;;;;;;;28.07;25.27;;;;;;;17.67;100.00;98924.47;2074018;28;20482;-69
2022/06/07 04:29:46;;;;;;;27.70;25.10;;;;;;;17.70;100.00;98918.41;2066293;28;20327;-69
2022/06/07 04:30:50;;;;;;;27.27;24.87;;;;;;;17.62;100.00;98917.41;2066178;28;20436;-70
2022/06/07 04:31:56;;;;;;;28.33;25.33;;;;;;;17.60;100.00;98911.56;2074466;28;20862;-69
2022/06/07 04:32:59;;;;;;;32.70;26.13;;;;;;;17.64;100.00;98915.16;2074110;28;20966;-69
2022/06/07 04:34:00;;;;;;;27.97;25.10;;;;;;;17.73;100.00;98920.44;2066044;28;20967;-70
2022/06/07 04:35:03;;;;;;;27.43;25.00;;;;;;;17.76;100.00;98917.03;2074194;28;20511;-70
2022/06/07 04:36:10;;;;;;;28.40;25.60;;;;;;;17.76;100.00;98917.03;2081657;28;20430;-69
2022/06/07 04:37:11;;;;;;;27.53;24.83;;;;;;;17.79;100.00;98911.72;2082284;28;20576;-69
2022/06/07 04:38:14;;;;;;;28.40;25.60;;;;;;;17.84;100.00;98910.69;2074085;28;20547;-70
2022/06/07 04:39:19;;;;;;;28.57;25.77;;;;;;;17.94;100.00;98923.66;2074633;28;20188;-69
2022/06/07 04:40:31;;;;;;;27.60;24.90;;;;;;;17.94;100.00;98915.56;2074098;28;20494;-70
2022/06/07 04:41:33;;;;;;;28.27;25.50;;;;;;;17.99;100.00;98912.59;2065980;28;20635;-69
2022/06/07 04:42:38;;;;;;;29.70;26.63;;;;;;;18.03;100.00;98916.16;2066452;28;20510;-70
2022/06/07 04:43:49;;;;;;;28.63;26.00;;;;;;;18.06;100.00;98909.28;2083196;28;20445;-69
2022/06/07 04:44:53;;;;;;;28.47;25.60;;;;;;;18.06;100.00;98920.84;2081906;28;20434;-70
2022/06/07 04:46:04;;;;;;;28.07;25.40;;;;;;;18.15;100.00;98912.56;2073952;28;20481;-69
2022/06/07 04:47:05;;;;;;;28.87;25.77;;;;;;;18.20;100.00;98919.66;2082815;28;20968;-69
2022/06/07 04:48:09;;;;;;;28.20;25.50;;;;;;;18.21;100.00;98921.22;2082160;28;20445;-69
2022/06/07 04:49:17;;;;;;;27.77;25.17;;;;;;;18.18;100.00;98913.81;2067207;28;20478;-69
2022/06/07 04:50:19;;;;;;;28.07;25.37;;;;;;;18.25;100.00;98920.16;2065900;28;20451;-69
2022/06/07 04:51:24;;;;;;;28.40;25.43;;;;;;;18.31;100.00;98921.44;2065755;28;20838;-69
2022/06/07 04:52:37;;;;;;;29.10;26.17;;;;;;;18.31;100.00;98918.75;2067512;28;20903;-69
2022/06/07 04:53:38;;;;;;;29.77;26.47;;;;;;;18.34;100.00;98922.69;2066417;28;20443;-69
2022/06/07 04:54:40;;;;;;;28.60;25.90;;;;;;;18.30;100.00;98919.09;2073969;28;20469;-69
2022/06/07 04:55:41;;;;;;;29.03;26.27;;;;;;;18.31;100.00;98920.66;2082186;28;20316;-69
2022/06/07 04:56:44;;;;;;;27.83;25.23;;;;;;;18.34;100.00;98919.97;2073870;28;20447;-69